»·PEaware :: FFT180 KDEN-KCPR

FFT180 :: KDEN-KCPR

FLIGHT INFORMATION

Flight Status: Arrived
Operator:
Frontier Airlines
More flights by this operator :: More flights under this callsign
Pilot: Etienne B. (28927)
Aircraft: AIRBUS A320
(A320)
More flights by this aircraft type
Origin: KDEN Denver Intl
United States
Destination: KCPR Natrona Co Intl
United States
More flights between these airports :: More routes between these airports
Route: +EXWNG1 EXWNG DDY
File this flight plan on PilotEdge
Remarks: RMK / SIMBRIEF
Altitude:
(Current/Filed)
34,000ft
Speed:
(Current/Filed)
453kts
Departed: 07-May-20 05:50 PM
Arrived: 07-May-20 06:36 PM
Distance/Time
Traveled:
200nm/0:46
Distance/Time
To Go:
Arrived

Flight Plot

Page will automatically refresh every two minutes.

Flight plan parsing failed; only flown route is shown


Map Options




Map Legend


Flown Route
Filed Route
Departure Airport
Arrival Airport
Navaid (VOR, NDB)
Fix

Horizontal Profiles

Position Reports

Time Latitude Longitude Heading Altitude Ground
Speed
07-May-20 17:30 39.853367 -104.676607 1 5443ft 0kts
07-May-20 17:31 39.853367 -104.676607 1 5443ft 0kts
07-May-20 17:32 39.853367 -104.676607 1 5443ft 0kts
07-May-20 17:33 39.853367 -104.676607 1 5443ft 0kts
07-May-20 17:34 39.853367 -104.676607 1 5443ft 0kts
07-May-20 17:35 39.853367 -104.676607 1 5443ft 0kts
07-May-20 17:36 39.853367 -104.676607 1 5443ft 0kts
07-May-20 17:37 39.853367 -104.676607 1 5443ft 0kts
07-May-20 17:38 39.853298 -104.676609 1 5443ft 2kts
07-May-20 17:39 39.852785 -104.676471 318 5443ft 2kts
07-May-20 17:40 39.852606 -104.675930 269 5443ft 0kts
07-May-20 17:41 39.852606 -104.675930 269 5443ft 0kts
07-May-20 17:42 39.852807 -104.677304 277 5443ft 9kts
07-May-20 17:43 39.852830 -104.680549 270 5443ft 0kts
07-May-20 17:44 39.852839 -104.681138 273 5443ft 6kts
07-May-20 17:45 39.854414 -104.684021 1 5443ft 17kts
07-May-20 17:46 39.859825 -104.683985 6 5443ft 16kts
07-May-20 17:47 39.863853 -104.683929 349 5443ft 12kts
07-May-20 17:48 39.864290 -104.686360 271 5443ft 11kts
07-May-20 17:49 39.882352 -104.686731 351 5611ft 157kts
07-May-20 17:50 39.933226 -104.678233 355 7594ft 218kts
07-May-20 17:51 40.001934 -104.681309 352 9694ft 269kts
07-May-20 17:52 40.082679 -104.679250 357 11534ft 324kts
07-May-20 17:53 40.174485 -104.677289 343 14065ft 331kts
07-May-20 17:54 40.265347 -104.703009 342 16475ft 340kts
07-May-20 17:55 40.358697 -104.729313 341 18612ft 349kts
07-May-20 17:56 40.454396 -104.756349 341 20504ft 358kts
07-May-20 17:57 40.552828 -104.784232 340 22234ft 366kts
07-May-20 17:58 40.653317 -104.812784 340 23783ft 375kts
07-May-20 17:59 40.756123 -104.842085 339 25200ft 382kts
07-May-20 18:00 40.850075 -104.899033 324 26208ft 370kts
07-May-20 18:01 40.939645 -104.966084 324 26212ft 372kts
07-May-20 18:02 41.029483 -105.033487 325 26216ft 371kts
07-May-20 18:03 41.118999 -105.100869 327 26218ft 368kts
07-May-20 18:04 41.210119 -105.169676 327 26216ft 390kts
07-May-20 18:05 41.304470 -105.241150 327 26226ft 390kts
07-May-20 18:06 41.398254 -105.312452 327 26234ft 389kts
07-May-20 18:07 41.493884 -105.380283 334 26245ft 391kts
07-May-20 18:08 41.594517 -105.435308 333 26234ft 391kts
07-May-20 18:09 41.694647 -105.490308 333 26231ft 391kts
07-May-20 18:10 41.795181 -105.545706 333 26238ft 391kts
07-May-20 18:11 41.895599 -105.601226 333 26298ft 391kts
07-May-20 18:12 41.996305 -105.657096 333 26313ft 391kts
07-May-20 18:13 42.092820 -105.710797 332 25765ft 354kts
07-May-20 18:14 42.178310 -105.758552 332 25068ft 315kts
07-May-20 18:15 42.257560 -105.802945 332 24360ft 307kts
07-May-20 18:16 42.336246 -105.847113 332 23518ft 305kts
07-May-20 18:17 42.413436 -105.890566 333 22047ft 299kts
07-May-20 18:18 42.489443 -105.933470 333 20554ft 294kts
07-May-20 18:19 42.564090 -105.975719 333 18762ft 291kts
07-May-20 18:20 42.634065 -106.024065 305 16783ft 270kts
07-May-20 18:21 42.635567 -106.122520 269 14711ft 263kts
07-May-20 18:22 42.626544 -106.218798 270 12444ft 255kts
07-May-20 18:23 42.618360 -106.312561 270 12014ft 249kts
07-May-20 18:24 42.610278 -106.405917 270 12011ft 248kts
07-May-20 18:25 42.602251 -106.499367 270 12011ft 248kts
07-May-20 18:26 42.594324 -106.592274 270 12011ft 248kts
07-May-20 18:27 42.586924 -106.685320 280 11037ft 244kts
07-May-20 18:28 42.637703 -106.717323 19 9146ft 256kts
07-May-20 18:29 42.695949 -106.679461 19 8817ft 211kts
07-May-20 18:30 42.747731 -106.651876 15 7738ft 197kts
07-May-20 18:31 42.790792 -106.609542 36 7620ft 171kts
07-May-20 18:32 42.820902 -106.568318 38 7328ft 148kts
07-May-20 18:33 42.849930 -106.530915 35 6567ft 143kts
07-May-20 18:34 42.879337 -106.492906 33 5779ft 144kts
07-May-20 18:35 42.900827 -106.465432 43 5332ft 33kts
07-May-20 18:36 42.902565 -106.462354 111 5333ft 9kts
07-May-20 18:37 42.903179 -106.459416 52 5332ft 7kts
07-May-20 18:38 42.903129 -106.458374 126 5334ft 1kts

Navigation Log

Ident Type
Flight plan parsing failed, navigation log unavailable